Troy, Idaho
Current Conditions -  °F | °C
As of 3:35 AM on Wednesday 26 Nov 2014 (Local Time) from KPUW Reporting Station
Haze Haze  
Wind Chill: 38°   Ceiling: 200
Heat Index: 42°   Visibility: 3mi
Dew Point: 42°   Wind: 6mph
Humidity: 100%   Direction: 240°WSW
Pressure: 30.17"   Gusts: NA
Location:  46.74°N, 116.77°W
Report Text: KPUW 261135Z AUTO 24005KT 3SM BR OVC002 06/06 A3017 RMK AO2 T00560056
Loading
Personal Weather Stations






























Interactive Weather Map New forecast layout! Learn more

10-Day Weather Forecast

Advertisements
Track Severe Weather on mobile